Terminal Aerodrome Forecast
Issued by NWS Shreveport, LA

Home | Current Version | Previous Version | Text Only | Print | Product List | Glossary On
Versions: 1 2 3 4 5 6 7 8 9 10 11 12 13 14 15 16 17 18 19 20
000
FTUS44 KSHV 290600 AAA
TAFTXK
TAF AMD
KTXK 290645Z 2907/3006 00000KT P6SM FEW017 BKN022
      TEMPO 2907/2909 BKN010
     FM290900 VRB03KT 4SM BR OVC010
     FM291500 06004KT P6SM BKN010
     FM291800 09004KT P6SM BKN015
     FM292100 09004KT P6SM BKN025=

USA.gov is the U.S. government's official web portal to all federal, state and local government web resources and services.